createdAt,value
2017-07-15T00:01:47.264Z,17.60
2017-07-15T00:04:13.671Z,17.60
2017-07-15T00:06:40.068Z,17.70
2017-07-15T00:09:06.460Z,17.60
2017-07-15T00:11:32.832Z,17.70
2017-07-15T00:13:59.244Z,17.50
2017-07-15T00:16:26.365Z,17.40
2017-07-15T00:18:52.821Z,17.40
2017-07-15T00:21:19.968Z,17.50
2017-07-15T00:23:46.392Z,17.50
2017-07-15T00:26:12.788Z,17.50
2017-07-15T00:28:39.175Z,17.40
2017-07-15T00:31:06.321Z,17.20
2017-07-15T00:33:33.463Z,17.20
2017-07-15T00:35:59.851Z,17.20
2017-07-15T00:38:26.254Z,17.00
2017-07-15T00:40:52.664Z,16.90
2017-07-15T00:43:19.808Z,16.80
2017-07-15T00:45:46.422Z,16.70
2017-07-15T00:48:12.839Z,16.50
2017-07-15T00:50:39.250Z,16.30
2017-07-15T00:53:05.641Z,16.20
2017-07-15T00:55:32.070Z,16.30
2017-07-15T00:57:58.478Z,16.10
2017-07-15T01:00:24.931Z,15.90
2017-07-15T01:02:51.342Z,15.90
2017-07-15T01:05:17.751Z,15.90
2017-07-15T01:07:44.175Z,15.80
2017-07-15T01:10:10.603Z,15.90
2017-07-15T01:12:36.995Z,15.90
2017-07-15T01:15:03.471Z,15.90
2017-07-15T01:17:29.907Z,15.80
2017-07-15T01:19:56.365Z,15.70
2017-07-15T01:22:22.914Z,15.60
2017-07-15T01:24:49.323Z,15.60
2017-07-15T01:27:15.801Z,15.50
2017-07-15T01:29:42.194Z,15.40
2017-07-15T01:32:08.659Z,15.30
2017-07-15T01:34:35.072Z,15.20
2017-07-15T01:37:01.481Z,14.90
2017-07-15T01:39:27.939Z,15.00
2017-07-15T01:41:54.592Z,15.00
2017-07-15T01:44:21.029Z,14.90
2017-07-15T01:46:47.441Z,15.00
2017-07-15T01:49:13.879Z,14.90
2017-07-15T01:51:40.320Z,15.00
2017-07-15T01:54:06.760Z,15.10
2017-07-15T01:56:33.293Z,15.20
2017-07-15T01:58:59.732Z,15.20
2017-07-15T02:01:26.162Z,15.10
2017-07-15T02:03:52.566Z,15.10
2017-07-15T02:06:18.999Z,15.00
2017-07-15T02:08:45.421Z,15.00
2017-07-15T02:11:11.858Z,15.00
2017-07-15T02:13:38.256Z,14.90
2017-07-15T02:16:04.668Z,14.90
2017-07-15T02:18:31.838Z,14.80
2017-07-15T02:20:58.268Z,14.80
2017-07-15T02:23:25.417Z,14.80
2017-07-15T02:25:52.552Z,14.70
2017-07-15T02:28:19.708Z,14.60
2017-07-15T02:30:46.872Z,14.60
2017-07-15T02:33:14.095Z,14.60
2017-07-15T02:35:40.509Z,14.50
2017-07-15T02:38:06.938Z,14.50
2017-07-15T02:40:33.374Z,14.50
2017-07-15T02:42:59.767Z,14.50
2017-07-15T02:45:26.179Z,14.50
2017-07-15T02:47:53.320Z,14.50
2017-07-15T02:50:19.692Z,14.60
2017-07-15T02:52:46.093Z,14.50
2017-07-15T02:55:13.240Z,14.30
2017-07-15T02:57:40.368Z,14.40
2017-07-15T03:00:06.858Z,14.40
2017-07-15T03:02:33.279Z,14.50
2017-07-15T03:05:00.084Z,14.50
2017-07-15T03:07:26.517Z,14.50
2017-07-15T03:09:52.913Z,14.60
2017-07-15T03:12:19.366Z,14.60
2017-07-15T03:14:46.213Z,14.50
2017-07-15T03:17:12.633Z,14.50
2017-07-15T03:19:39.069Z,14.50
2017-07-15T03:22:05.518Z,14.50
2017-07-15T03:24:31.941Z,14.60
2017-07-15T03:27:10.519Z,14.60
2017-07-15T03:29:36.945Z,14.50
2017-07-15T03:32:03.715Z,14.40
2017-07-15T03:34:30.155Z,14.30
2017-07-15T03:36:56.643Z,14.30
2017-07-15T03:39:23.081Z,14.30
2017-07-15T03:41:49.467Z,14.40
2017-07-15T03:44:15.853Z,14.50
2017-07-15T03:46:42.283Z,14.60
2017-07-15T03:49:08.716Z,14.70
2017-07-15T03:51:35.122Z,14.80
2017-07-15T03:54:02.288Z,15.00
2017-07-15T03:56:29.454Z,15.10
2017-07-15T03:58:55.858Z,15.10
2017-07-15T04:01:23.049Z,15.20
2017-07-15T04:03:49.531Z,15.20
2017-07-15T04:06:16.774Z,15.40
2017-07-15T04:08:43.174Z,15.40
2017-07-15T04:11:09.588Z,15.40
2017-07-15T04:13:35.997Z,15.50
2017-07-15T04:16:03.166Z,15.40
2017-07-15T04:18:29.566Z,15.40
2017-07-15T04:20:55.985Z,15.40
2017-07-15T04:23:22.431Z,15.30
2017-07-15T04:25:49.587Z,15.20
2017-07-15T04:28:16.739Z,15.30
2017-07-15T04:30:43.904Z,15.40
2017-07-15T04:33:10.327Z,15.30
2017-07-15T04:35:36.747Z,15.30
2017-07-15T04:38:03.375Z,15.30
2017-07-15T04:40:29.850Z,15.40
2017-07-15T04:42:56.256Z,15.30
2017-07-15T04:45:23.696Z,15.30
2017-07-15T04:47:50.113Z,15.30
2017-07-15T04:50:16.542Z,15.30
2017-07-15T04:52:42.943Z,15.30
2017-07-15T04:55:09.361Z,15.30
2017-07-15T04:57:36.525Z,15.10
2017-07-15T05:00:02.930Z,15.10
2017-07-15T05:02:30.118Z,14.90
2017-07-15T05:04:56.532Z,14.80
2017-07-15T05:07:22.932Z,14.80
2017-07-15T05:09:49.319Z,14.80
2017-07-15T05:12:15.727Z,14.70
2017-07-15T05:14:42.115Z,14.70
2017-07-15T05:17:08.531Z,14.60
2017-07-15T05:19:34.958Z,14.60
2017-07-15T05:22:01.367Z,14.70
2017-07-15T05:24:28.572Z,14.70
2017-07-15T05:26:54.980Z,14.70
2017-07-15T05:29:21.392Z,14.70
2017-07-15T05:31:47.776Z,14.70
2017-07-15T05:34:14.175Z,14.90
2017-07-15T05:36:40.579Z,15.00
2017-07-15T05:39:07.020Z,15.10
2017-07-15T05:41:33.448Z,15.10
2017-07-15T05:44:00.595Z,15.10
2017-07-15T05:46:26.985Z,15.10
2017-07-15T05:48:53.391Z,15.00
2017-07-15T05:51:19.869Z,15.10
2017-07-15T05:53:47.065Z,15.20
2017-07-15T05:56:13.516Z,15.20
2017-07-15T05:58:39.927Z,15.10
2017-07-15T06:01:06.343Z,15.10
2017-07-15T06:03:32.754Z,15.10
2017-07-15T06:05:59.157Z,15.30
2017-07-15T06:08:25.581Z,15.30
2017-07-15T06:10:51.985Z,15.40
2017-07-15T06:13:18.392Z,15.40
2017-07-15T06:15:44.810Z,15.50
2017-07-15T06:18:11.988Z,15.60
2017-07-15T06:20:38.408Z,15.60
2017-07-15T06:23:04.820Z,15.60
2017-07-15T06:25:31.963Z,15.50
2017-07-15T06:27:58.365Z,15.50
2017-07-15T06:30:24.768Z,15.60
2017-07-15T06:32:51.561Z,15.70
2017-07-15T06:35:17.966Z,15.60
2017-07-15T06:37:44.408Z,15.60
2017-07-15T06:40:10.801Z,15.70
2017-07-15T06:42:37.277Z,15.80
2017-07-15T06:45:04.567Z,15.70
2017-07-15T06:47:31.719Z,15.70
2017-07-15T06:49:58.860Z,15.80
2017-07-15T06:52:25.351Z,15.70
2017-07-15T06:54:52.909Z,15.80
2017-07-15T06:57:19.317Z,15.90
2017-07-15T06:59:45.753Z,15.90
2017-07-15T07:02:12.161Z,15.80
2017-07-15T07:04:39.304Z,15.70
2017-07-15T07:07:06.453Z,15.70
2017-07-15T07:09:33.593Z,15.70
2017-07-15T07:11:59.965Z,15.60
2017-07-15T07:14:26.393Z,15.70
2017-07-15T07:16:52.822Z,15.60
2017-07-15T07:19:19.197Z,15.60
2017-07-15T07:21:45.590Z,15.50
2017-07-15T07:24:12.008Z,15.40
2017-07-15T07:26:39.110Z,15.40
2017-07-15T07:29:05.468Z,15.40
2017-07-15T07:31:31.866Z,15.40
2017-07-15T07:33:58.268Z,15.30
2017-07-15T07:36:24.688Z,15.40
2017-07-15T07:38:51.889Z,15.30
2017-07-15T07:41:18.302Z,15.30
2017-07-15T07:43:44.688Z,15.30
2017-07-15T07:46:11.837Z,15.10
2017-07-15T07:48:38.956Z,15.10
2017-07-15T07:51:05.354Z,15.10
2017-07-15T07:53:32.041Z,15.10
2017-07-15T07:55:58.421Z,15.10
2017-07-15T07:58:24.815Z,15.00
2017-07-15T08:00:51.213Z,14.90
2017-07-15T08:03:17.652Z,14.90
2017-07-15T08:05:44.053Z,15.00
2017-07-15T08:08:10.461Z,15.00
2017-07-15T08:10:37.612Z,15.20
2017-07-15T08:13:04.746Z,15.20
2017-07-15T08:15:31.160Z,15.20
2017-07-15T08:17:57.549Z,15.20
2017-07-15T08:20:23.964Z,15.10
2017-07-15T08:22:50.343Z,15.10
2017-07-15T08:25:16.765Z,15.10
2017-07-15T08:27:43.181Z,15.10
2017-07-15T08:30:09.603Z,15.10
2017-07-15T08:32:36.035Z,15.10
2017-07-15T08:35:02.435Z,15.20
2017-07-15T08:37:28.849Z,15.10
2017-07-15T08:39:55.237Z,15.30
2017-07-15T08:42:21.704Z,15.30
2017-07-15T08:44:48.116Z,15.30
2017-07-15T08:47:14.539Z,15.30
2017-07-15T08:49:40.940Z,15.30
2017-07-15T08:52:08.089Z,15.50
2017-07-15T08:54:35.506Z,15.50
2017-07-15T08:57:01.882Z,15.50
2017-07-15T08:59:29.016Z,15.40
2017-07-15T09:01:55.416Z,15.30
2017-07-15T09:04:21.800Z,15.30
2017-07-15T09:06:48.917Z,15.40
2017-07-15T09:09:15.319Z,15.30
2017-07-15T09:11:41.725Z,15.40
2017-07-15T09:14:08.141Z,15.30
2017-07-15T09:16:35.280Z,15.40
2017-07-15T09:19:01.714Z,15.40
2017-07-15T09:21:28.889Z,15.50
2017-07-15T09:23:55.316Z,15.50
2017-07-15T09:26:21.740Z,15.50
2017-07-15T09:28:48.912Z,15.80
2017-07-15T09:31:15.312Z,15.80
2017-07-15T09:33:41.706Z,16.00
2017-07-15T09:36:08.141Z,16.10
2017-07-15T09:38:34.604Z,16.20
2017-07-15T09:41:01.024Z,16.20
2017-07-15T09:43:28.487Z,16.10
2017-07-15T09:45:54.891Z,16.00
2017-07-15T09:48:21.301Z,15.90
2017-07-15T09:50:47.693Z,15.90
2017-07-15T09:53:14.109Z,15.90
2017-07-15T09:55:40.501Z,16.00
2017-07-15T09:58:06.962Z,16.10
2017-07-15T10:00:33.371Z,16.20
2017-07-15T10:02:59.772Z,16.30
2017-07-15T10:05:26.913Z,16.60
2017-07-15T10:07:54.095Z,16.60
2017-07-15T10:10:20.507Z,16.60
2017-07-15T10:12:47.639Z,16.60
2017-07-15T10:15:14.068Z,16.60
2017-07-15T10:17:40.492Z,16.50
2017-07-15T10:20:06.914Z,16.40
2017-07-15T10:22:33.316Z,16.50
2017-07-15T10:24:59.742Z,16.80
2017-07-15T10:27:26.150Z,16.90
2017-07-15T10:29:52.565Z,17.00
2017-07-15T10:32:19.728Z,17.20
2017-07-15T10:34:46.129Z,17.20
2017-07-15T10:37:12.559Z,17.30
2017-07-15T10:39:38.991Z,17.40
2017-07-15T10:42:05.415Z,17.40
2017-07-15T10:44:31.829Z,17.40
2017-07-15T10:46:58.230Z,17.50
2017-07-15T10:49:25.444Z,17.20
2017-07-15T10:51:51.862Z,17.20
2017-07-15T10:54:18.268Z,17.00
2017-07-15T10:56:44.674Z,16.90
2017-07-15T10:59:11.821Z,17.20
2017-07-15T11:01:39.356Z,17.30
2017-07-15T11:04:06.357Z,17.30
2017-07-15T11:06:32.727Z,17.50
2017-07-15T11:08:59.187Z,17.50
2017-07-15T11:11:26.343Z,17.80
2017-07-15T11:13:53.488Z,18.00
2017-07-15T11:16:21.259Z,18.10
2017-07-15T11:18:48.411Z,18.10
2017-07-15T11:21:16.844Z,18.10
2017-07-15T11:23:43.258Z,18.10
2017-07-15T11:26:09.658Z,18.30
2017-07-15T11:28:36.828Z,18.70
2017-07-15T11:31:03.623Z,18.70
2017-07-15T11:33:30.018Z,18.80
2017-07-15T11:35:56.452Z,19.00
2017-07-15T11:38:22.871Z,19.10
2017-07-15T11:40:49.273Z,19.10
2017-07-15T11:43:16.457Z,19.10
2017-07-15T11:45:42.857Z,19.10
2017-07-15T11:48:10.000Z,19.00
2017-07-15T11:50:36.392Z,19.00
2017-07-15T11:53:02.798Z,19.00
2017-07-15T11:55:29.262Z,19.00
2017-07-15T11:57:55.735Z,19.00
2017-07-15T12:00:22.906Z,19.20
2017-07-15T12:02:49.309Z,19.10
2017-07-15T12:05:15.729Z,19.00
2017-07-15T12:07:42.159Z,19.10
2017-07-15T12:10:08.605Z,19.40
2017-07-15T12:12:35.084Z,19.90
2017-07-15T12:15:01.505Z,19.90
2017-07-15T12:17:28.648Z,19.70
2017-07-15T12:19:55.780Z,19.40
2017-07-15T12:22:22.178Z,19.40
2017-07-15T12:24:48.625Z,19.10
2017-07-15T12:27:15.064Z,19.20
2017-07-15T12:29:41.459Z,19.20
2017-07-15T12:32:07.893Z,19.20
2017-07-15T12:34:34.306Z,19.20
2017-07-15T12:37:01.444Z,19.10
2017-07-15T12:39:28.603Z,19.20
2017-07-15T12:41:55.044Z,19.20
2017-07-15T12:44:21.434Z,19.40
2017-07-15T12:46:47.846Z,19.70
2017-07-15T12:49:14.266Z,19.60
2017-07-15T12:51:40.679Z,19.40
2017-07-15T12:54:07.075Z,19.60
2017-07-15T12:56:33.490Z,19.80
2017-07-15T12:58:59.893Z,19.80
2017-07-15T13:01:26.305Z,19.80
2017-07-15T13:03:52.726Z,19.70
2017-07-15T13:06:20.264Z,19.50
2017-07-15T13:08:46.678Z,19.50
2017-07-15T13:11:13.103Z,19.60
2017-07-15T13:13:39.502Z,19.60
2017-07-15T13:16:05.883Z,19.80
2017-07-15T13:18:32.276Z,20.00
2017-07-15T13:20:58.687Z,20.00
2017-07-15T13:23:25.842Z,20.00
2017-07-15T13:25:52.310Z,20.00
2017-07-15T13:28:18.714Z,20.20
2017-07-15T13:30:45.112Z,20.20
2017-07-15T13:33:12.295Z,20.60
2017-07-15T13:35:38.706Z,20.60
2017-07-15T13:38:05.116Z,20.50
2017-07-15T13:40:31.593Z,20.50
2017-07-15T13:42:58.024Z,20.30
2017-07-15T13:45:24.491Z,20.50
2017-07-15T13:47:50.926Z,20.80
2017-07-15T13:50:17.309Z,20.80
2017-07-15T13:52:44.435Z,20.60
2017-07-15T13:55:10.851Z,20.60
2017-07-15T13:57:37.258Z,20.30
2017-07-15T14:00:03.689Z,19.90
2017-07-15T14:02:30.075Z,19.90
2017-07-15T14:04:57.217Z,19.80
2017-07-15T14:07:23.619Z,19.80
2017-07-15T14:09:50.019Z,19.80
2017-07-15T14:12:16.442Z,20.00
2017-07-15T14:14:42.857Z,20.00
2017-07-15T14:17:09.989Z,20.10
2017-07-15T14:19:36.375Z,20.10
2017-07-15T14:22:02.778Z,20.10
2017-07-15T14:24:29.901Z,19.70
2017-07-15T14:26:56.341Z,19.70
2017-07-15T14:29:22.762Z,19.40
2017-07-15T14:31:49.156Z,19.00
2017-07-15T14:34:15.550Z,18.80
2017-07-15T14:36:42.691Z,19.20
2017-07-15T14:39:09.106Z,19.20
2017-07-15T14:41:35.492Z,19.20
2017-07-15T14:44:01.900Z,19.10
2017-07-15T14:46:29.065Z,19.10
2017-07-15T14:48:56.239Z,19.10
2017-07-15T14:51:22.636Z,19.00
2017-07-15T14:53:49.779Z,18.60
2017-07-15T14:56:17.005Z,18.60
2017-07-15T14:58:43.430Z,18.60
2017-07-15T15:01:09.849Z,18.70
2017-07-15T15:03:36.248Z,18.60
2017-07-15T15:06:02.637Z,18.60
2017-07-15T15:08:29.125Z,18.80
2017-07-15T15:10:55.528Z,19.30
2017-07-15T15:13:22.674Z,20.00
2017-07-15T15:15:49.805Z,20.10
2017-07-15T15:18:16.215Z,20.10
2017-07-15T15:20:42.681Z,20.20
2017-07-15T15:23:09.077Z,20.30
2017-07-15T15:25:35.858Z,20.20
2017-07-15T15:28:02.259Z,20.20
2017-07-15T15:30:28.744Z,20.30
2017-07-15T15:32:55.906Z,20.20
2017-07-15T15:35:22.294Z,20.20
2017-07-15T15:37:48.704Z,20.00
2017-07-15T15:40:15.091Z,19.80
2017-07-15T15:42:42.239Z,19.60
2017-07-15T15:45:09.370Z,19.50
2017-07-15T15:47:35.756Z,19.50
2017-07-15T15:50:02.232Z,19.40
2017-07-15T15:52:28.643Z,19.50
2017-07-15T15:55:00.961Z,19.60
2017-07-15T15:57:28.094Z,19.40
2017-07-15T15:59:55.246Z,19.50
2017-07-15T16:02:21.624Z,19.50
2017-07-15T16:04:48.038Z,19.40
2017-07-15T16:07:14.477Z,19.20
2017-07-15T16:09:40.931Z,19.20
2017-07-15T16:12:07.309Z,19.10
2017-07-15T16:14:33.719Z,19.00
2017-07-15T16:17:00.121Z,19.00
2017-07-15T16:19:26.913Z,19.00
2017-07-15T16:21:53.286Z,19.00
2017-07-15T16:24:19.697Z,19.00
2017-07-15T16:26:46.850Z,18.90
2017-07-15T16:29:13.336Z,18.90
2017-07-15T16:31:39.818Z,18.90
2017-07-15T16:34:07.223Z,18.80
2017-07-15T16:36:33.743Z,18.80
2017-07-15T16:39:00.149Z,18.80
2017-07-15T16:41:26.552Z,18.90
2017-07-15T16:43:53.705Z,18.80
2017-07-15T16:46:20.097Z,18.80
2017-07-15T16:48:46.510Z,18.90
2017-07-15T16:51:12.968Z,19.10
2017-07-15T16:53:39.451Z,19.30
2017-07-15T16:56:05.879Z,19.40
2017-07-15T16:58:33.010Z,19.30
2017-07-15T17:00:59.433Z,19.30
2017-07-15T17:03:25.837Z,19.20
2017-07-15T17:05:52.250Z,19.10
2017-07-15T17:08:18.654Z,19.20
2017-07-15T17:10:45.813Z,19.20
2017-07-15T17:13:12.939Z,19.10
2017-07-15T17:15:39.387Z,19.10
2017-07-15T17:18:05.805Z,19.10
2017-07-15T17:20:32.194Z,19.20
2017-07-15T17:22:58.627Z,19.10
2017-07-15T17:25:25.029Z,19.10
2017-07-15T17:27:52.196Z,19.10
2017-07-15T17:30:18.613Z,19.20
2017-07-15T17:32:45.061Z,19.10
2017-07-15T17:35:11.453Z,19.00
2017-07-15T17:37:37.913Z,18.90
2017-07-15T17:40:05.028Z,19.00
2017-07-15T17:42:31.438Z,19.00
2017-07-15T17:44:57.827Z,18.90
2017-07-15T17:47:24.985Z,18.60
2017-07-15T17:49:51.398Z,18.50
2017-07-15T17:52:17.796Z,18.30
2017-07-15T17:57:20.841Z,18.10
2017-07-15T17:59:47.982Z,17.70
2017-07-15T18:02:15.153Z,17.60
2017-07-15T18:04:41.569Z,17.50
2017-07-15T18:07:09.086Z,17.40
2017-07-15T18:09:35.520Z,17.30
2017-07-15T18:12:01.951Z,17.30
2017-07-15T18:14:28.377Z,17.20
2017-07-15T18:16:54.788Z,17.10
2017-07-15T18:19:21.203Z,17.00
2017-07-15T18:21:48.412Z,16.80
2017-07-15T18:24:14.849Z,16.80
2017-07-15T18:26:41.439Z,16.80
2017-07-15T18:29:07.861Z,16.80
2017-07-15T18:31:34.291Z,16.80
2017-07-15T18:34:00.704Z,16.80
2017-07-15T18:36:27.143Z,16.70
2017-07-15T18:38:54.275Z,17.00
2017-07-15T18:41:20.678Z,16.90
2017-07-15T18:43:47.125Z,16.90
2017-07-15T18:46:13.548Z,16.90
2017-07-15T18:48:39.972Z,17.00
2017-07-15T18:51:06.380Z,16.90
2017-07-15T18:53:32.815Z,16.80
2017-07-15T18:55:59.230Z,16.80
2017-07-15T18:58:26.361Z,16.80
2017-07-15T19:00:52.763Z,16.70
2017-07-15T19:03:19.199Z,16.70
2017-07-15T19:05:45.604Z,16.70
2017-07-15T19:08:12.573Z,16.80
2017-07-15T19:10:38.980Z,16.80
2017-07-15T19:13:05.415Z,16.80
2017-07-15T19:15:31.803Z,16.80
2017-07-15T19:17:58.957Z,16.70
2017-07-15T19:20:26.154Z,16.70
2017-07-15T19:22:52.579Z,16.70
2017-07-15T19:25:19.054Z,16.80
2017-07-15T19:27:45.453Z,16.80
2017-07-15T19:30:11.909Z,16.80
2017-07-15T19:32:40.335Z,16.70
2017-07-15T19:35:07.476Z,16.70
2017-07-15T19:37:33.844Z,16.70
2017-07-15T19:40:00.250Z,16.70
2017-07-15T19:42:27.897Z,16.70
2017-07-15T19:44:55.025Z,16.70
2017-07-15T19:47:21.431Z,16.70
2017-07-15T19:49:47.928Z,16.60
2017-07-15T19:52:15.111Z,16.70
2017-07-15T19:54:41.537Z,16.70
2017-07-15T19:57:07.988Z,16.70
2017-07-15T19:59:34.396Z,16.60
2017-07-15T20:02:00.793Z,16.60
2017-07-15T20:04:28.330Z,16.50
2017-07-15T20:06:54.720Z,16.40
2017-07-15T20:09:21.148Z,16.50
2017-07-15T20:11:47.548Z,16.50
2017-07-15T20:14:14.686Z,16.30
2017-07-15T20:16:41.539Z,16.30
2017-07-15T20:19:07.964Z,16.30
2017-07-15T20:21:34.368Z,16.30
2017-07-15T20:24:00.794Z,16.40
2017-07-15T20:26:27.214Z,16.30
2017-07-15T20:28:53.606Z,16.30
2017-07-15T20:31:20.779Z,16.30
2017-07-15T20:33:47.177Z,16.30
2017-07-15T20:36:19.661Z,16.30
2017-07-15T20:38:46.843Z,16.10
2017-07-15T20:41:13.271Z,16.10
2017-07-15T20:43:39.656Z,16.10
2017-07-15T20:46:06.060Z,16.10
2017-07-15T20:48:32.473Z,16.10
2017-07-15T20:50:58.873Z,16.10
2017-07-15T20:53:32.188Z,16.00
2017-07-15T20:55:58.654Z,16.00
2017-07-15T20:58:25.079Z,16.10
2017-07-15T21:00:51.485Z,16.00
2017-07-15T21:03:17.927Z,16.00
2017-07-15T21:05:44.348Z,16.00
2017-07-15T21:08:11.510Z,16.00
2017-07-15T21:10:37.943Z,15.90
2017-07-15T21:13:04.340Z,15.90
2017-07-15T21:15:30.779Z,15.90
2017-07-15T21:17:57.174Z,15.80
2017-07-15T21:20:23.586Z,15.70
2017-07-15T21:22:49.982Z,15.80
2017-07-15T21:25:17.113Z,15.60
2017-07-15T21:27:43.537Z,15.50
2017-07-15T21:30:09.929Z,15.50
2017-07-15T21:32:36.344Z,15.40
2017-07-15T21:35:02.731Z,15.40
2017-07-15T21:37:29.129Z,15.40
2017-07-15T21:39:55.532Z,15.50
2017-07-15T21:42:22.668Z,15.50
2017-07-15T21:44:49.851Z,15.50
2017-07-15T21:47:16.265Z,15.50
2017-07-15T21:49:43.404Z,15.50
2017-07-15T21:52:09.793Z,15.50
2017-07-15T21:54:36.220Z,15.50
2017-07-15T21:57:02.675Z,15.50
2017-07-15T21:59:29.101Z,15.50
2017-07-15T22:01:55.538Z,15.50
2017-07-15T22:04:22.037Z,15.50
2017-07-15T22:06:48.467Z,15.40
2017-07-15T22:09:14.881Z,15.40
2017-07-15T22:11:42.005Z,15.40
2017-07-15T22:14:08.414Z,15.40
2017-07-15T22:16:34.816Z,15.50
2017-07-15T22:19:01.227Z,15.40
2017-07-15T22:21:28.403Z,15.40
2017-07-15T22:23:54.805Z,15.40
2017-07-15T22:26:21.931Z,15.40
2017-07-15T22:28:48.356Z,15.40
2017-07-15T22:31:14.788Z,15.40
2017-07-15T22:33:41.216Z,15.40
2017-07-15T22:36:07.642Z,15.40
2017-07-15T22:38:34.305Z,15.40
2017-07-15T22:41:00.805Z,15.30
2017-07-15T22:43:27.225Z,15.30
2017-07-15T22:45:53.629Z,15.30
2017-07-15T22:48:20.017Z,15.40
2017-07-15T22:50:46.447Z,15.40
2017-07-15T22:53:12.856Z,15.40
2017-07-15T22:55:39.273Z,15.30
2017-07-15T22:58:05.721Z,15.30
2017-07-15T23:00:32.155Z,15.30
2017-07-15T23:02:58.581Z,15.10
2017-07-15T23:05:25.491Z,15.10
2017-07-15T23:07:52.833Z,15.10
2017-07-15T23:10:19.249Z,15.10
2017-07-15T23:12:45.653Z,15.10
2017-07-15T23:15:12.031Z,15.10
2017-07-15T23:17:38.435Z,15.00
2017-07-15T23:20:04.831Z,14.80
2017-07-15T23:22:31.276Z,15.00
2017-07-15T23:24:57.675Z,15.10
2017-07-15T23:27:24.854Z,15.00
2017-07-15T23:29:51.252Z,15.00
2017-07-15T23:32:18.380Z,15.00
2017-07-15T23:34:44.784Z,15.00
2017-07-15T23:37:11.196Z,14.80
2017-07-15T23:39:37.585Z,14.80
2017-07-15T23:42:03.984Z,14.90
2017-07-15T23:44:30.401Z,14.80
2017-07-15T23:46:56.802Z,14.80
2017-07-15T23:49:23.991Z,14.70
2017-07-15T23:51:50.395Z,14.70
2017-07-15T23:54:17.528Z,14.70
2017-07-15T23:56:43.921Z,14.70
2017-07-15T23:59:10.329Z,14.60
